createdAt,value
2018-09-25T00:00:45.716Z,102914.00
2018-09-25T00:02:54.523Z,102916.00
2018-09-25T00:05:04.861Z,102917.00
2018-09-25T00:07:13.554Z,102915.00
2018-09-25T00:09:22.347Z,102923.00
2018-09-25T00:11:31.329Z,102927.00
2018-09-25T00:13:40.021Z,102925.00
2018-09-25T00:15:48.827Z,102929.00
2018-09-25T00:17:58.065Z,102934.00
2018-09-25T00:20:06.916Z,102930.00
2018-09-25T00:22:15.677Z,102929.00
2018-09-25T00:24:24.483Z,102937.00
2018-09-25T00:26:34.755Z,102932.00
2018-09-25T00:28:43.484Z,102937.00
2018-09-25T00:30:52.249Z,102940.00
2018-09-25T00:33:00.991Z,102944.00
2018-09-25T00:35:09.671Z,102946.00
2018-09-25T00:37:18.363Z,102951.00
2018-09-25T00:39:27.203Z,102950.00
2018-09-25T00:41:35.836Z,102956.00
2018-09-25T00:43:44.643Z,102953.00
2018-09-25T00:45:53.410Z,102957.00
2018-09-25T00:48:02.274Z,102956.00
2018-09-25T00:50:11.231Z,102956.00
2018-09-25T00:52:19.944Z,102960.00
2018-09-25T00:54:28.793Z,102962.00
2018-09-25T00:56:37.472Z,102965.00
2018-09-25T00:58:46.335Z,102963.00
2018-09-25T01:00:54.984Z,102959.00
2018-09-25T01:03:05.482Z,102968.00
2018-09-25T01:05:14.215Z,102969.00
2018-09-25T01:07:23.009Z,102969.00
2018-09-25T01:09:31.751Z,102967.00
2018-09-25T01:11:40.625Z,102968.00
2018-09-25T01:13:49.489Z,102968.00
2018-09-25T01:15:58.598Z,102969.00
2018-09-25T01:18:07.558Z,102972.00
2018-09-25T01:20:16.305Z,102970.00
2018-09-25T01:22:25.280Z,102975.00
2018-09-25T01:24:35.233Z,102977.00
2018-09-25T01:26:44.043Z,102978.00
2018-09-25T01:28:52.914Z,102979.00
2018-09-25T01:31:01.739Z,102984.00
2018-09-25T01:33:10.884Z,102987.00
2018-09-25T01:35:19.741Z,102985.00
2018-09-25T01:37:28.556Z,102989.00
2018-09-25T01:39:37.344Z,102987.00
2018-09-25T01:41:46.040Z,102988.00
2018-09-25T01:43:54.827Z,102985.00
2018-09-25T01:46:05.116Z,102986.00
2018-09-25T01:48:13.896Z,102983.00
2018-09-25T01:50:22.570Z,102982.00
2018-09-25T01:52:31.456Z,102980.00
2018-09-25T01:54:40.239Z,102982.00
2018-09-25T01:56:49.129Z,102981.00
2018-09-25T01:58:58.064Z,102988.00
2018-09-25T02:01:06.820Z,102990.00
2018-09-25T02:03:15.643Z,102996.00
2018-09-25T02:05:24.488Z,102993.00
2018-09-25T02:07:35.232Z,102999.00
2018-09-25T02:09:44.088Z,103005.00
2018-09-25T02:11:52.752Z,102999.00
2018-09-25T02:14:01.549Z,103006.00
2018-09-25T02:16:10.681Z,103004.00
2018-09-25T02:18:19.502Z,103007.00
2018-09-25T02:20:28.177Z,103011.00
2018-09-25T02:22:36.914Z,103020.00
2018-09-25T02:24:45.763Z,103020.00
2018-09-25T02:26:54.568Z,103024.00
2018-09-25T02:29:05.035Z,103031.00
2018-09-25T02:31:13.999Z,103025.00
2018-09-25T02:33:22.779Z,103025.00
2018-09-25T02:35:31.520Z,103025.00
2018-09-25T02:37:40.381Z,103028.00
2018-09-25T02:39:49.229Z,103026.00
2018-09-25T02:41:57.825Z,103028.00
2018-09-25T02:44:07.094Z,103034.00
2018-09-25T02:46:15.805Z,103039.00
2018-09-25T02:48:24.660Z,103041.00
2018-09-25T02:50:35.001Z,103041.00
2018-09-25T02:52:43.836Z,103042.00
2018-09-25T02:54:52.722Z,103048.00
2018-09-25T02:57:01.485Z,103048.00
2018-09-25T02:59:10.364Z,103058.00
2018-09-25T03:01:19.316Z,103059.00
2018-09-25T03:03:28.085Z,103059.00
2018-09-25T03:05:36.979Z,103058.00
2018-09-25T03:07:45.893Z,103060.00
2018-09-25T03:09:54.870Z,103065.00
2018-09-25T03:12:05.128Z,103061.00
2018-09-25T03:14:13.957Z,103071.00
2018-09-25T03:16:22.664Z,103071.00
2018-09-25T03:18:31.513Z,103071.00
2018-09-25T03:20:40.428Z,103077.00
2018-09-25T03:22:49.160Z,103080.00
2018-09-25T03:24:58.027Z,103082.00
2018-09-25T03:27:06.850Z,103079.00
2018-09-25T03:29:15.744Z,103079.00
2018-09-25T03:31:24.618Z,103077.00
2018-09-25T03:33:34.887Z,103076.00
2018-09-25T03:35:43.739Z,103075.00
2018-09-25T03:37:52.514Z,103078.00
2018-09-25T03:40:01.340Z,103081.00
2018-09-25T03:42:10.256Z,103076.00
2018-09-25T03:44:19.092Z,103079.00
2018-09-25T03:46:28.552Z,103079.00
2018-09-25T03:48:37.447Z,103083.00
2018-09-25T03:50:46.233Z,103084.00
2018-09-25T03:52:55.064Z,103089.00
2018-09-25T03:55:05.583Z,103092.00
2018-09-25T03:57:14.347Z,103093.00
2018-09-25T03:59:23.195Z,103095.00
2018-09-25T04:01:32.049Z,103103.00
2018-09-25T04:03:40.794Z,103112.00
2018-09-25T04:05:49.836Z,103112.00
2018-09-25T04:07:58.536Z,103127.00
2018-09-25T04:10:07.329Z,103123.00
2018-09-25T04:12:16.111Z,103127.00
2018-09-25T04:14:24.799Z,103132.00
2018-09-25T04:16:35.224Z,103137.00
2018-09-25T04:18:44.105Z,103141.00
2018-09-25T04:20:53.099Z,103142.00
2018-09-25T04:23:01.944Z,103143.00
2018-09-25T04:25:10.853Z,103144.00
2018-09-25T04:27:19.749Z,103149.00
2018-09-25T04:29:28.464Z,103152.00
2018-09-25T04:31:37.370Z,103154.00
2018-09-25T04:33:46.008Z,103156.00
2018-09-25T04:35:54.660Z,103158.00
2018-09-25T04:38:04.930Z,103162.00
2018-09-25T04:40:13.754Z,103160.00
2018-09-25T04:42:22.567Z,103163.00
2018-09-25T04:44:31.278Z,103161.00
2018-09-25T04:46:40.139Z,103169.00
2018-09-25T04:48:48.962Z,103170.00
2018-09-25T04:50:57.859Z,103175.00
2018-09-25T04:53:06.898Z,103178.00
2018-09-25T04:55:15.561Z,103181.00
2018-09-25T04:57:24.228Z,103181.00
2018-09-25T04:59:34.776Z,103182.00
2018-09-25T05:01:43.494Z,103184.00
2018-09-25T05:03:52.160Z,103183.00
2018-09-25T05:06:00.925Z,103189.00
2018-09-25T05:08:09.639Z,103192.00
2018-09-25T05:10:18.363Z,103197.00
2018-09-25T05:12:27.071Z,103201.00
2018-09-25T05:14:36.006Z,103203.00
2018-09-25T05:16:44.813Z,103204.00
2018-09-25T05:18:53.514Z,103209.00
2018-09-25T05:21:02.358Z,103207.00
2018-09-25T05:23:11.292Z,103216.00
2018-09-25T05:25:20.103Z,103218.00
2018-09-25T05:27:29.096Z,103222.00
2018-09-25T05:29:37.949Z,103214.00
2018-09-25T05:31:46.701Z,103214.00
2018-09-25T05:33:55.354Z,103219.00
2018-09-25T05:36:05.479Z,103222.00
2018-09-25T05:38:14.320Z,103221.00
2018-09-25T05:40:22.991Z,103230.00
2018-09-25T05:42:31.716Z,103232.00
2018-09-25T05:44:40.576Z,103237.00
2018-09-25T05:46:49.356Z,103237.00
2018-09-25T05:48:58.338Z,103235.00
2018-09-25T05:51:07.128Z,103234.00
2018-09-25T05:53:15.843Z,103239.00
2018-09-25T05:55:24.776Z,103243.00
2018-09-25T05:57:35.369Z,103252.00
2018-09-25T05:59:44.215Z,103254.00
2018-09-25T06:01:53.068Z,103252.00
2018-09-25T06:04:01.877Z,103248.00
2018-09-25T06:06:10.643Z,103249.00
2018-09-25T06:08:19.450Z,103253.00
2018-09-25T06:10:28.252Z,103261.00
2018-09-25T06:12:36.955Z,103263.00
2018-09-25T06:14:45.705Z,103259.00
2018-09-25T06:16:54.452Z,103262.00
2018-09-25T06:19:03.707Z,103266.00
2018-09-25T06:21:12.533Z,103269.00
2018-09-25T06:23:21.320Z,103269.00
2018-09-25T06:25:30.276Z,103281.00
2018-09-25T06:27:39.194Z,103276.00
2018-09-25T06:29:48.143Z,103284.00
2018-09-25T06:31:57.248Z,103288.00
2018-09-25T06:34:05.983Z,103285.00
2018-09-25T06:36:14.748Z,103286.00
2018-09-25T06:38:23.607Z,103297.00
2018-09-25T06:40:32.386Z,103292.00
2018-09-25T06:42:41.331Z,103295.00
2018-09-25T06:44:50.203Z,103304.00
2018-09-25T06:46:58.897Z,103305.00
2018-09-25T06:49:07.628Z,103300.00
2018-09-25T06:51:16.287Z,103293.00
2018-09-25T06:53:25.075Z,103304.00
2018-09-25T06:55:35.537Z,103305.00
2018-09-25T06:57:44.236Z,103311.00
2018-09-25T06:59:52.980Z,103305.00
2018-09-25T07:02:02.149Z,103311.00
2018-09-25T07:04:10.896Z,103317.00
2018-09-25T07:06:19.733Z,103313.00
2018-09-25T07:08:28.616Z,103312.00
2018-09-25T07:10:37.384Z,103318.00
2018-09-25T07:12:46.185Z,103320.00
2018-09-25T07:14:54.993Z,103321.00
2018-09-25T07:17:05.202Z,103320.00
2018-09-25T07:19:14.267Z,103326.00
2018-09-25T07:21:23.027Z,103325.00
2018-09-25T07:23:31.782Z,103325.00
2018-09-25T07:25:40.861Z,103329.00
2018-09-25T07:27:49.694Z,103330.00
2018-09-25T07:29:58.494Z,103337.00
2018-09-25T07:32:07.335Z,103339.00
2018-09-25T07:34:16.045Z,103344.00
2018-09-25T07:36:24.954Z,103344.00
2018-09-25T07:38:35.803Z,103343.00
2018-09-25T07:40:44.543Z,103343.00
2018-09-25T07:42:53.220Z,103348.00
2018-09-25T07:45:02.045Z,103348.00
2018-09-25T07:47:10.867Z,103347.00
2018-09-25T07:49:19.544Z,103347.00
2018-09-25T07:51:28.335Z,103345.00
2018-09-25T07:53:37.116Z,103352.00
2018-09-25T07:55:45.920Z,103347.00
2018-09-25T07:57:54.729Z,103346.00
2018-09-25T08:00:04.808Z,103347.00
2018-09-25T08:02:13.568Z,103352.00
2018-09-25T08:04:22.433Z,103353.00
2018-09-25T08:06:31.290Z,103357.00
2018-09-25T08:08:40.045Z,103348.00
2018-09-25T08:10:48.804Z,103353.00
2018-09-25T08:12:57.604Z,103351.00
2018-09-25T08:15:06.485Z,103354.00
2018-09-25T08:17:15.342Z,103357.00
2018-09-25T08:19:24.412Z,103363.00
2018-09-25T08:21:35.203Z,103360.00
2018-09-25T08:23:43.953Z,103364.00
2018-09-25T08:25:52.801Z,103367.00
2018-09-25T08:28:01.538Z,103362.00
2018-09-25T08:30:10.891Z,103358.00
2018-09-25T08:32:19.533Z,103364.00
2018-09-25T08:34:28.657Z,103360.00
2018-09-25T08:36:37.391Z,103368.00
2018-09-25T08:38:46.211Z,103366.00
2018-09-25T08:40:55.244Z,103371.00
2018-09-25T08:43:05.361Z,103383.00
2018-09-25T08:45:14.134Z,103374.00
2018-09-25T08:47:22.956Z,103374.00
2018-09-25T08:49:31.692Z,103373.00
2018-09-25T08:51:40.535Z,103380.00
2018-09-25T08:53:49.335Z,103376.00
2018-09-25T08:55:58.221Z,103383.00
2018-09-25T08:58:07.067Z,103385.00
2018-09-25T09:00:16.104Z,103391.00
2018-09-25T09:02:24.811Z,103395.00
2018-09-25T09:04:35.165Z,103396.00
2018-09-25T09:06:43.948Z,103396.00
2018-09-25T09:08:52.751Z,103399.00
2018-09-25T09:11:01.394Z,103395.00
2018-09-25T09:13:10.228Z,103404.00
2018-09-25T09:15:19.005Z,103403.00
2018-09-25T09:17:28.269Z,103407.00
2018-09-25T09:19:36.982Z,103405.00
2018-09-25T09:21:45.788Z,103408.00
2018-09-25T09:23:54.716Z,103407.00
2018-09-25T09:26:04.919Z,103412.00
2018-09-25T09:28:13.860Z,103410.00
2018-09-25T09:30:22.683Z,103409.00
2018-09-25T09:32:31.577Z,103410.00
2018-09-25T09:34:40.251Z,103417.00
2018-09-25T09:36:49.076Z,103407.00
2018-09-25T09:38:57.847Z,103405.00
2018-09-25T09:41:06.757Z,103413.00
2018-09-25T09:43:15.493Z,103407.00
2018-09-25T09:45:24.199Z,103405.00
2018-09-25T09:47:34.277Z,103411.00
2018-09-25T09:49:42.956Z,103409.00
2018-09-25T09:51:51.716Z,103413.00
2018-09-25T09:54:00.624Z,103411.00
2018-09-25T09:56:09.336Z,103410.00
2018-09-25T09:58:18.176Z,103410.00
2018-09-25T10:00:27.120Z,103410.00
2018-09-25T10:02:35.883Z,103409.00
2018-09-25T10:04:44.635Z,103410.00
2018-09-25T10:06:53.484Z,103416.00
2018-09-25T10:09:02.096Z,103421.00
2018-09-25T10:11:11.118Z,103420.00
2018-09-25T10:13:19.818Z,103417.00
2018-09-25T10:15:28.596Z,103421.00
2018-09-25T10:17:37.325Z,103422.00
2018-09-25T10:19:46.076Z,103411.00
2018-09-25T10:21:54.760Z,103411.00
2018-09-25T10:24:05.220Z,103415.00
2018-09-25T10:26:13.982Z,103408.00
2018-09-25T10:28:23.184Z,103412.00
2018-09-25T10:30:31.927Z,103411.00
2018-09-25T10:32:40.756Z,103415.00
2018-09-25T10:34:49.652Z,103417.00
2018-09-25T10:36:58.397Z,103414.00
2018-09-25T10:39:07.193Z,103410.00
2018-09-25T10:41:16.328Z,103413.00
2018-09-25T10:43:24.903Z,103412.00
2018-09-25T10:45:34.330Z,103412.00
2018-09-25T10:47:43.232Z,103417.00
2018-09-25T10:49:52.039Z,103419.00
2018-09-25T10:52:00.757Z,103417.00
2018-09-25T10:54:09.524Z,103419.00
2018-09-25T10:56:18.375Z,103416.00
2018-09-25T10:58:26.888Z,103413.00
2018-09-25T11:00:35.564Z,103410.00
2018-09-25T11:02:44.242Z,103407.00
2018-09-25T11:04:52.862Z,103407.00
2018-09-25T11:07:01.992Z,103416.00
2018-09-25T11:09:13.793Z,103425.00
2018-09-25T11:11:22.595Z,103418.00
2018-09-25T11:13:31.470Z,103425.00
2018-09-25T11:15:40.273Z,103414.00
2018-09-25T11:17:48.941Z,103406.00
2018-09-25T11:19:58.592Z,103419.00
2018-09-25T11:22:07.421Z,103421.00
2018-09-25T11:24:16.097Z,103423.00
2018-09-25T11:26:24.767Z,103418.00
2018-09-25T11:28:35.296Z,103417.00
2018-09-25T11:30:43.936Z,103418.00
2018-09-25T11:32:52.524Z,103420.00
2018-09-25T11:35:01.181Z,103412.00
2018-09-25T11:37:10.016Z,103417.00
2018-09-25T11:39:18.744Z,103420.00
2018-09-25T11:41:27.702Z,103414.00
2018-09-25T11:43:36.436Z,103420.00
2018-09-25T11:45:45.113Z,103421.00
2018-09-25T11:47:53.952Z,103419.00
2018-09-25T11:50:04.588Z,103418.00
2018-09-25T11:52:13.508Z,103423.00
2018-09-25T11:54:22.276Z,103416.00
2018-09-25T11:56:30.943Z,103427.00
2018-09-25T11:58:40.179Z,103423.00
2018-09-25T12:00:48.788Z,103412.00
2018-09-25T12:02:57.436Z,103416.00
2018-09-25T12:05:15.166Z,103415.00
2018-09-25T12:07:24.016Z,103419.00
2018-09-25T12:09:34.437Z,103420.00
2018-09-25T12:11:43.279Z,103414.00
2018-09-25T12:13:52.201Z,103415.00
2018-09-25T12:16:01.064Z,103417.00
2018-09-25T12:18:09.753Z,103416.00
2018-09-25T12:20:18.527Z,103418.00
2018-09-25T12:22:27.384Z,103423.00
2018-09-25T12:24:36.493Z,103421.00
2018-09-25T12:26:45.355Z,103420.00
2018-09-25T12:28:54.028Z,103416.00
2018-09-25T12:31:04.179Z,103421.00
2018-09-25T12:33:13.101Z,103420.00
2018-09-25T12:35:21.954Z,103439.00
2018-09-25T12:37:30.853Z,103427.00
2018-09-25T12:39:39.565Z,103427.00
2018-09-25T12:41:48.233Z,103424.00
2018-09-25T12:43:57.032Z,103432.00
2018-09-25T12:46:05.804Z,103435.00
2018-09-25T12:48:14.688Z,103432.00
2018-09-25T12:50:23.427Z,103422.00
2018-09-25T12:52:32.202Z,103421.00
2018-09-25T12:54:41.157Z,103413.00
2018-09-25T12:56:49.866Z,103411.00
2018-09-25T12:58:58.456Z,103411.00
2018-09-25T13:01:07.344Z,103410.00
2018-09-25T13:03:15.938Z,103409.00
2018-09-25T13:05:24.745Z,103400.00
2018-09-25T13:07:34.862Z,103398.00
2018-09-25T13:09:43.593Z,103405.00
2018-09-25T13:11:52.290Z,103399.00
2018-09-25T13:14:00.957Z,103398.00
2018-09-25T13:16:10.012Z,103406.00
2018-09-25T13:18:18.699Z,103403.00
2018-09-25T13:20:27.620Z,103399.00
2018-09-25T13:22:36.476Z,103402.00
2018-09-25T13:24:45.298Z,103399.00
2018-09-25T13:26:53.979Z,103394.00
2018-09-25T13:29:04.232Z,103396.00
2018-09-25T13:31:13.178Z,103394.00
2018-09-25T13:33:22.503Z,103400.00
2018-09-25T13:35:31.775Z,103389.00
2018-09-25T13:37:40.837Z,103385.00
2018-09-25T13:39:49.605Z,103378.00
2018-09-25T13:41:58.361Z,103377.00
2018-09-25T13:44:07.080Z,103379.00
2018-09-25T13:46:15.757Z,103380.00
2018-09-25T13:48:24.710Z,103375.00
2018-09-25T13:50:34.919Z,103373.00
2018-09-25T13:52:43.684Z,103373.00
2018-09-25T13:54:52.574Z,103373.00
2018-09-25T13:57:01.252Z,103370.00
2018-09-25T13:59:10.058Z,103370.00
2018-09-25T14:01:18.974Z,103373.00
2018-09-25T14:03:28.638Z,103378.00
2018-09-25T14:05:37.375Z,103383.00
2018-09-25T14:07:46.198Z,103380.00
2018-09-25T14:09:55.001Z,103376.00
2018-09-25T14:12:05.400Z,103377.00
2018-09-25T14:14:14.924Z,103370.00
2018-09-25T14:16:23.764Z,103365.00
2018-09-25T14:18:33.958Z,103369.00
2018-09-25T14:20:42.634Z,103361.00
2018-09-25T14:22:51.399Z,103364.00
2018-09-25T14:25:00.172Z,103361.00
2018-09-25T14:27:08.787Z,103358.00
2018-09-25T14:29:17.528Z,103353.00
2018-09-25T14:31:28.727Z,103352.00
2018-09-25T14:33:37.523Z,103355.00
2018-09-25T14:35:46.433Z,103342.00
2018-09-25T14:37:55.256Z,103347.00
2018-09-25T14:40:05.216Z,103347.00
2018-09-25T14:42:13.931Z,103355.00
2018-09-25T14:44:22.699Z,103353.00
2018-09-25T14:46:31.402Z,103352.00
2018-09-25T14:48:40.188Z,103350.00
2018-09-25T14:50:48.876Z,103347.00
2018-09-25T14:52:57.663Z,103348.00
2018-09-25T14:55:06.473Z,103338.00
2018-09-25T14:57:15.268Z,103335.00
2018-09-25T14:59:23.996Z,103337.00
2018-09-25T15:01:34.374Z,103329.00
2018-09-25T15:03:43.436Z,103331.00
2018-09-25T15:05:52.253Z,103325.00
2018-09-25T15:08:01.093Z,103326.00
2018-09-25T15:10:09.839Z,103331.00
2018-09-25T15:12:18.520Z,103334.00
2018-09-25T15:14:27.327Z,103337.00
2018-09-25T15:16:36.197Z,103331.00
2018-09-25T15:18:45.017Z,103320.00
2018-09-25T15:20:53.861Z,103316.00
2018-09-25T15:23:04.267Z,103314.00
2018-09-25T15:25:13.255Z,103311.00
2018-09-25T15:27:22.134Z,103319.00
2018-09-25T15:29:30.786Z,103328.00
2018-09-25T15:31:39.406Z,103326.00
2018-09-25T15:33:48.060Z,103319.00
2018-09-25T15:35:57.897Z,103330.00
2018-09-25T15:38:06.687Z,103329.00
2018-09-25T15:40:15.539Z,103328.00
2018-09-25T15:42:24.328Z,103343.00
2018-09-25T15:44:34.959Z,103338.00
2018-09-25T15:46:43.797Z,103338.00
2018-09-25T15:48:52.693Z,103341.00
2018-09-25T15:51:01.440Z,103348.00
2018-09-25T15:53:10.380Z,103344.00
2018-09-25T15:55:19.247Z,103340.00
2018-09-25T15:57:27.948Z,103352.00
2018-09-25T15:59:36.638Z,103354.00
2018-09-25T16:01:45.450Z,103354.00
2018-09-25T16:03:54.267Z,103362.00
2018-09-25T16:06:04.137Z,103365.00
2018-09-25T16:08:13.200Z,103371.00
2018-09-25T16:10:22.020Z,103376.00
2018-09-25T16:12:30.800Z,103386.00
2018-09-25T16:14:39.572Z,103384.00
2018-09-25T16:16:48.318Z,103386.00
2018-09-25T16:18:57.724Z,103394.00
2018-09-25T16:21:06.806Z,103400.00
2018-09-25T16:23:15.664Z,103403.00
2018-09-25T16:25:24.417Z,103399.00
2018-09-25T16:27:34.412Z,103401.00
2018-09-25T16:29:43.240Z,103394.00
2018-09-25T16:31:51.988Z,103385.00
2018-09-25T16:34:00.788Z,103388.00
2018-09-25T16:36:09.617Z,103389.00
2018-09-25T16:38:18.491Z,103384.00
2018-09-25T16:40:27.277Z,103383.00
2018-09-25T16:42:36.022Z,103390.00
2018-09-25T16:44:44.883Z,103393.00
2018-09-25T16:46:53.631Z,103394.00
2018-09-25T16:49:02.459Z,103399.00
2018-09-25T16:51:11.173Z,103397.00
2018-09-25T16:53:19.869Z,103388.00
2018-09-25T16:55:28.626Z,103390.00
2018-09-25T16:57:37.607Z,103393.00
2018-09-25T16:59:46.488Z,103405.00
2018-09-25T17:01:55.411Z,103414.00
2018-09-25T17:04:05.744Z,103421.00
2018-09-25T17:06:14.481Z,103419.00
2018-09-25T17:08:23.260Z,103417.00
2018-09-25T17:10:32.116Z,103418.00
2018-09-25T17:12:40.923Z,103416.00
2018-09-25T17:14:49.651Z,103421.00
2018-09-25T17:16:58.316Z,103424.00
2018-09-25T17:19:07.051Z,103429.00
2018-09-25T17:21:15.838Z,103426.00
2018-09-25T17:23:24.608Z,103427.00
2018-09-25T17:25:34.857Z,103425.00
2018-09-25T17:27:43.591Z,103435.00
2018-09-25T17:29:52.402Z,103434.00
2018-09-25T17:32:01.107Z,103431.00
2018-09-25T17:34:09.921Z,103435.00
2018-09-25T17:36:18.632Z,103438.00
2018-09-25T17:38:27.349Z,103446.00
2018-09-25T17:40:36.443Z,103449.00
2018-09-25T17:42:45.247Z,103452.00
2018-09-25T17:44:54.194Z,103462.00
2018-09-25T17:47:04.928Z,103462.00
2018-09-25T17:49:13.809Z,103464.00
2018-09-25T17:51:22.509Z,103465.00
2018-09-25T17:53:31.364Z,103459.00
2018-09-25T17:55:40.137Z,103466.00
2018-09-25T17:57:48.820Z,103464.00
2018-09-25T17:59:58.645Z,103474.00
2018-09-25T18:02:07.412Z,103476.00
2018-09-25T18:04:15.964Z,103477.00
2018-09-25T18:06:24.806Z,103473.00
2018-09-25T18:08:35.326Z,103475.00
2018-09-25T18:10:44.128Z,103473.00
2018-09-25T18:12:53.089Z,103468.00
2018-09-25T18:15:01.863Z,103474.00
2018-09-25T18:17:10.583Z,103480.00
2018-09-25T18:19:19.534Z,103477.00
2018-09-25T18:21:28.507Z,103482.00
2018-09-25T18:23:37.268Z,103485.00
2018-09-25T18:25:46.005Z,103480.00
2018-09-25T18:27:55.000Z,103477.00
2018-09-25T18:30:05.212Z,103473.00
2018-09-25T18:32:13.906Z,103473.00
2018-09-25T18:34:22.705Z,103471.00
2018-09-25T18:36:31.584Z,103471.00
2018-09-25T18:38:40.468Z,103475.00
2018-09-25T18:40:49.286Z,103470.00
2018-09-25T18:42:58.081Z,103472.00
2018-09-25T18:45:07.072Z,103477.00
2018-09-25T18:47:15.765Z,103469.00
2018-09-25T18:49:24.678Z,103469.00
2018-09-25T18:51:35.218Z,103471.00
2018-09-25T18:53:44.097Z,103475.00
2018-09-25T18:55:52.859Z,103475.00
2018-09-25T18:58:02.235Z,103478.00
2018-09-25T19:00:11.409Z,103484.00
2018-09-25T19:02:21.016Z,103492.00
2018-09-25T19:04:29.832Z,103489.00
2018-09-25T19:06:38.502Z,103490.00
2018-09-25T19:08:47.777Z,103494.00
2018-09-25T19:10:57.678Z,103494.00
2018-09-25T19:13:06.398Z,103487.00
2018-09-25T19:15:15.829Z,103488.00
2018-09-25T19:17:24.652Z,103486.00
2018-09-25T19:19:35.108Z,103475.00
2018-09-25T19:21:44.172Z,103482.00
2018-09-25T19:23:52.892Z,103479.00
2018-09-25T19:26:01.926Z,103478.00
2018-09-25T19:28:10.763Z,103481.00
2018-09-25T19:30:19.495Z,103491.00
2018-09-25T19:32:28.184Z,103494.00
2018-09-25T19:34:36.843Z,103495.00
2018-09-25T19:36:45.796Z,103495.00
2018-09-25T19:38:54.625Z,103500.00
2018-09-25T19:41:04.681Z,103505.00
2018-09-25T19:43:13.392Z,103509.00
2018-09-25T19:45:22.196Z,103510.00
2018-09-25T19:47:31.012Z,103507.00
2018-09-25T19:49:39.943Z,103509.00
2018-09-25T19:51:48.714Z,103513.00
2018-09-25T19:53:57.484Z,103513.00
2018-09-25T19:56:06.486Z,103509.00
2018-09-25T19:58:15.224Z,103512.00
2018-09-25T20:00:23.945Z,103508.00
2018-09-25T20:02:34.748Z,103509.00
2018-09-25T20:04:43.513Z,103508.00
2018-09-25T20:06:52.434Z,103500.00
2018-09-25T20:09:01.153Z,103500.00
2018-09-25T20:11:10.189Z,103503.00
2018-09-25T20:13:19.001Z,103506.00
2018-09-25T20:15:27.872Z,103501.00
2018-09-25T20:17:36.506Z,103510.00
2018-09-25T20:19:45.393Z,103513.00
2018-09-25T20:21:54.124Z,103506.00
2018-09-25T20:24:04.770Z,103512.00
2018-09-25T20:26:13.661Z,103509.00
2018-09-25T20:28:22.514Z,103511.00
2018-09-25T20:30:31.347Z,103517.00
2018-09-25T20:32:40.225Z,103523.00
2018-09-25T20:34:49.064Z,103521.00
2018-09-25T20:36:57.866Z,103522.00
2018-09-25T20:39:06.782Z,103525.00
2018-09-25T20:41:15.723Z,103526.00
2018-09-25T20:43:24.450Z,103527.00
2018-09-25T20:45:34.981Z,103529.00
2018-09-25T20:47:44.083Z,103529.00
2018-09-25T20:49:52.800Z,103537.00
2018-09-25T20:52:01.702Z,103539.00
2018-09-25T20:54:10.615Z,103536.00
2018-09-25T20:56:19.427Z,103532.00
2018-09-25T20:58:28.239Z,103539.00
2018-09-25T21:00:37.109Z,103531.00
2018-09-25T21:02:45.995Z,103533.00
2018-09-25T21:04:55.096Z,103531.00
2018-09-25T21:07:05.558Z,103535.00
2018-09-25T21:09:14.719Z,103535.00
2018-09-25T21:11:23.460Z,103533.00
2018-09-25T21:13:32.205Z,103529.00
2018-09-25T21:15:41.090Z,103527.00
2018-09-25T21:17:49.891Z,103526.00
2018-09-25T21:19:58.672Z,103521.00
2018-09-25T21:22:07.437Z,103524.00
2018-09-25T21:24:16.223Z,103530.00
2018-09-25T21:26:24.955Z,103522.00
2018-09-25T21:28:35.520Z,103519.00
2018-09-25T21:30:44.128Z,103514.00
2018-09-25T21:32:53.323Z,103517.00
2018-09-25T21:35:02.085Z,103515.00
2018-09-25T21:37:10.744Z,103515.00
2018-09-25T21:39:19.739Z,103515.00
2018-09-25T21:41:28.388Z,103520.00
2018-09-25T21:43:37.201Z,103525.00
2018-09-25T21:45:46.083Z,103520.00
2018-09-25T21:47:54.934Z,103528.00
2018-09-25T21:50:05.166Z,103534.00
2018-09-25T21:52:14.132Z,103534.00
2018-09-25T21:54:22.999Z,103538.00
2018-09-25T21:56:31.804Z,103535.00
2018-09-25T21:58:40.759Z,103527.00
2018-09-25T22:00:49.678Z,103527.00
2018-09-25T22:02:58.437Z,103527.00
2018-09-25T22:05:07.300Z,103527.00
2018-09-25T22:07:15.920Z,103522.00
2018-09-25T22:09:24.756Z,103520.00
2018-09-25T22:11:34.557Z,103514.00
2018-09-25T22:13:43.269Z,103512.00
2018-09-25T22:15:52.176Z,103513.00
2018-09-25T22:18:00.895Z,103512.00
2018-09-25T22:20:09.669Z,103511.00
2018-09-25T22:22:18.514Z,103507.00
2018-09-25T22:24:27.217Z,103507.00
2018-09-25T22:26:35.980Z,103505.00
2018-09-25T22:28:44.830Z,103505.00
2018-09-25T22:30:53.616Z,103505.00
2018-09-25T22:33:02.431Z,103496.00
2018-09-25T22:35:11.235Z,103497.00
2018-09-25T22:37:19.986Z,103488.00
2018-09-25T22:39:28.748Z,103497.00
2018-09-25T22:41:37.399Z,103501.00
2018-09-25T22:43:46.192Z,103509.00
2018-09-25T22:45:55.350Z,103500.00
2018-09-25T22:48:05.632Z,103491.00
2018-09-25T22:50:14.509Z,103483.00
2018-09-25T22:52:23.419Z,103475.00
2018-09-25T22:54:32.341Z,103475.00
2018-09-25T22:56:41.080Z,103471.00
2018-09-25T22:58:50.205Z,103473.00
2018-09-25T23:00:58.991Z,103462.00
2018-09-25T23:03:07.742Z,103464.00
2018-09-25T23:05:16.480Z,103461.00
2018-09-25T23:07:25.221Z,103458.00
2018-09-25T23:09:35.526Z,103461.00
2018-09-25T23:11:44.368Z,103457.00
2018-09-25T23:13:53.149Z,103459.00
2018-09-25T23:16:01.848Z,103453.00
2018-09-25T23:18:10.750Z,103455.00
2018-09-25T23:20:19.508Z,103460.00
2018-09-25T23:22:28.253Z,103453.00
2018-09-25T23:24:37.043Z,103456.00
2018-09-25T23:26:45.684Z,103462.00
2018-09-25T23:28:54.516Z,103458.00
2018-09-25T23:31:04.787Z,103460.00
2018-09-25T23:33:13.678Z,103459.00
2018-09-25T23:35:22.503Z,103461.00
2018-09-25T23:37:31.280Z,103469.00
2018-09-25T23:39:40.060Z,103477.00
2018-09-25T23:41:48.774Z,103484.00
2018-09-25T23:43:57.684Z,103481.00
2018-09-25T23:46:38.475Z,103481.00
2018-09-25T23:48:52.000Z,103484.00
2018-09-25T23:51:03.571Z,103482.00
2018-09-25T23:53:15.071Z,103480.00
2018-09-25T23:55:22.744Z,103475.00
2018-09-25T23:57:30.297Z,103476.00
2018-09-25T23:59:42.371Z,103473.00
